createdAt,value
2019-05-09T00:01:35.888Z,15.25
2019-05-09T00:04:06.316Z,14.63
2019-05-09T00:06:36.685Z,14.18
2019-05-09T00:09:07.135Z,12.88
2019-05-09T00:11:37.609Z,12.25
2019-05-09T00:14:08.030Z,13.88
2019-05-09T00:16:38.474Z,14.20
2019-05-09T00:19:08.882Z,13.08
2019-05-09T00:21:40.902Z,12.93
2019-05-09T00:24:13.292Z,12.55
2019-05-09T00:26:44.240Z,13.28
2019-05-09T00:29:25.409Z,14.18
2019-05-09T00:32:00.140Z,15.68
2019-05-09T00:34:44.223Z,16.12
2019-05-09T00:37:14.689Z,17.42
2019-05-09T00:39:45.019Z,17.37
2019-05-09T00:42:15.421Z,14.67
2019-05-09T00:44:53.332Z,15.08
2019-05-09T00:47:25.368Z,15.90
2019-05-09T00:49:55.719Z,14.50
2019-05-09T00:52:26.172Z,15.45
2019-05-09T00:54:56.522Z,16.82
2019-05-09T00:57:35.855Z,18.00
2019-05-09T01:00:16.061Z,19.48
2019-05-09T01:02:46.444Z,20.30
2019-05-09T01:05:16.852Z,18.90
2019-05-09T01:07:47.234Z,18.07
2019-05-09T01:10:17.679Z,21.17
2019-05-09T01:12:48.259Z,22.23
2019-05-09T01:15:18.895Z,22.20
2019-05-09T01:17:49.281Z,19.87
2019-05-09T01:20:19.994Z,18.47
2019-05-09T01:22:50.451Z,18.77
2019-05-09T01:25:20.877Z,18.73
2019-05-09T01:27:53.680Z,19.97
2019-05-09T01:30:24.309Z,20.23
2019-05-09T01:32:56.347Z,20.97
2019-05-09T01:35:26.765Z,21.13
2019-05-09T01:37:57.230Z,22.57
2019-05-09T01:40:27.645Z,23.13
2019-05-09T01:42:58.095Z,21.37
2019-05-09T01:45:28.513Z,21.00
2019-05-09T01:47:58.960Z,22.43
2019-05-09T01:50:29.381Z,24.63
2019-05-09T01:52:59.798Z,26.90
2019-05-09T01:55:47.706Z,28.07
2019-05-09T01:58:18.201Z,24.17
2019-05-09T02:00:48.606Z,25.70
2019-05-09T02:03:20.706Z,22.13
2019-05-09T02:05:53.133Z,22.30
2019-05-09T02:08:23.776Z,21.73
2019-05-09T02:10:54.596Z,19.83
2019-05-09T02:13:25.058Z,20.07
2019-05-09T02:16:14.124Z,20.07
2019-05-09T02:18:46.865Z,21.77
2019-05-09T02:21:19.030Z,21.37
2019-05-09T02:23:49.513Z,20.27
2019-05-09T02:26:19.950Z,21.87
2019-05-09T02:28:50.424Z,21.13
2019-05-09T02:31:20.862Z,20.93
2019-05-09T02:33:53.864Z,19.77
2019-05-09T02:36:23.414Z,19.30
2019-05-09T02:38:53.897Z,20.57
2019-05-09T02:41:24.336Z,20.00
2019-05-09T02:43:58.361Z,20.30
2019-05-09T02:46:33.313Z,21.53
2019-05-09T02:49:03.894Z,21.00
2019-05-09T02:51:38.463Z,21.37
2019-05-09T02:54:09.915Z,20.90
2019-05-09T02:56:42.415Z,21.70
2019-05-09T02:59:19.069Z,22.03
2019-05-09T03:02:09.659Z,20.63
2019-05-09T03:04:39.359Z,22.00
2019-05-09T03:07:12.141Z,24.47
2019-05-09T03:09:42.720Z,26.80
2019-05-09T03:12:26.881Z,34.00
2019-05-09T03:14:48.558Z,31.50
2019-05-09T03:17:18.713Z,32.20
2019-05-09T03:19:49.282Z,30.43
2019-05-09T03:22:22.866Z,30.67
2019-05-09T03:24:53.356Z,31.93
2019-05-09T03:27:28.497Z,32.43
2019-05-09T03:29:59.168Z,29.10
2019-05-09T03:32:38.574Z,29.83
2019-05-09T03:35:08.490Z,29.50
2019-05-09T03:37:39.492Z,24.60
2019-05-09T03:40:10.094Z,25.27
2019-05-09T03:42:43.648Z,28.20
2019-05-09T03:45:14.339Z,24.73
2019-05-09T03:47:49.396Z,19.03
2019-05-09T03:50:19.876Z,19.30
2019-05-09T03:52:50.278Z,18.80
2019-05-09T03:55:22.341Z,17.17
2019-05-09T03:57:58.086Z,18.73
2019-05-09T04:00:28.693Z,20.10
2019-05-09T04:02:59.129Z,21.43
2019-05-09T04:05:29.556Z,22.70
2019-05-09T04:08:19.876Z,23.33
2019-05-09T04:10:51.901Z,29.27
2019-05-09T04:13:24.343Z,32.03
2019-05-09T04:15:54.796Z,32.77
2019-05-09T04:18:27.575Z,37.07
2019-05-09T04:20:57.461Z,38.53
2019-05-09T04:23:27.891Z,31.03
2019-05-09T04:26:07.511Z,28.37
2019-05-09T04:28:39.861Z,28.07
2019-05-09T04:31:09.977Z,27.53
2019-05-09T04:33:40.357Z,24.13
2019-05-09T04:36:10.692Z,23.17
2019-05-09T04:38:41.927Z,19.87
2019-05-09T04:41:16.402Z,14.07
2019-05-09T04:43:44.688Z,13.70
2019-05-09T04:46:20.718Z,12.20
2019-05-09T04:48:47.629Z,13.00
2019-05-09T04:51:18.137Z,14.40
2019-05-09T04:53:48.542Z,17.43
2019-05-09T04:56:23.465Z,22.27
2019-05-09T04:58:53.896Z,30.67
2019-05-09T05:01:27.994Z,28.90
2019-05-09T05:03:58.829Z,28.73
2019-05-09T05:06:29.169Z,23.53
2019-05-09T05:08:59.629Z,23.20
2019-05-09T05:11:30.035Z,25.37
2019-05-09T05:14:00.489Z,29.73
2019-05-09T05:16:30.813Z,27.40
2019-05-09T05:19:01.583Z,28.07
2019-05-09T05:21:31.964Z,25.77
2019-05-09T05:24:03.986Z,24.70
2019-05-09T05:26:34.304Z,25.87
2019-05-09T05:29:04.740Z,30.13
2019-05-09T05:31:35.149Z,36.33
2019-05-09T05:34:08.285Z,39.07
2019-05-09T05:36:38.754Z,33.70
2019-05-09T05:39:09.825Z,27.37
2019-05-09T05:41:40.236Z,20.10
2019-05-09T05:44:10.689Z,15.70
2019-05-09T05:46:50.791Z,12.73
2019-05-09T05:49:20.528Z,9.63
2019-05-09T05:51:50.961Z,6.60
2019-05-09T05:54:22.433Z,6.63
2019-05-09T05:56:52.846Z,6.07
2019-05-09T05:59:23.290Z,6.13
2019-05-09T06:01:53.731Z,11.80
2019-05-09T06:04:24.172Z,17.23
2019-05-09T06:06:54.584Z,19.47
2019-05-09T06:09:27.849Z,14.80
2019-05-09T06:11:57.892Z,13.03
2019-05-09T06:14:28.665Z,8.80
2019-05-09T06:16:59.057Z,7.77
2019-05-09T06:19:29.549Z,6.33
2019-05-09T06:21:59.839Z,6.17
2019-05-09T06:24:30.310Z,6.00
2019-05-09T06:27:00.614Z,6.07
2019-05-09T06:29:31.056Z,7.97
2019-05-09T06:32:01.379Z,10.10
2019-05-09T06:34:31.833Z,15.33
2019-05-09T06:37:03.178Z,11.53
2019-05-09T06:39:33.992Z,7.17
2019-05-09T06:42:04.306Z,5.83
2019-05-09T06:44:51.033Z,3.83
2019-05-09T06:47:22.897Z,3.43
2019-05-09T06:49:54.779Z,4.27
2019-05-09T06:52:25.006Z,3.60
2019-05-09T06:54:58.040Z,3.83
2019-05-09T06:57:28.113Z,4.07
2019-05-09T06:59:58.655Z,3.60
2019-05-09T07:02:30.503Z,3.43
2019-05-09T07:05:07.517Z,3.40
2019-05-09T07:07:57.559Z,3.93
2019-05-09T07:10:28.431Z,9.67
2019-05-09T07:12:58.762Z,13.80
2019-05-09T07:15:29.143Z,12.33
2019-05-09T07:17:59.538Z,9.87
2019-05-09T07:20:29.904Z,7.87
2019-05-09T07:23:00.307Z,5.73
2019-05-09T07:25:35.207Z,5.10
2019-05-09T07:28:07.627Z,4.10
2019-05-09T07:30:44.930Z,4.43
2019-05-09T07:33:19.769Z,5.73
2019-05-09T07:35:50.121Z,4.23
2019-05-09T07:38:30.984Z,3.70
2019-05-09T07:41:01.366Z,4.60
2019-05-09T07:43:31.661Z,6.27
2019-05-09T07:46:12.535Z,4.73
2019-05-09T07:48:44.409Z,5.50
2019-05-09T07:51:14.745Z,6.17
2019-05-09T07:53:45.037Z,6.43
2019-05-09T07:56:15.402Z,6.27
2019-05-09T07:58:47.631Z,5.73
2019-05-09T08:01:19.060Z,5.90
2019-05-09T08:03:49.565Z,4.87
2019-05-09T08:06:19.937Z,7.40
2019-05-09T08:08:50.342Z,7.50
2019-05-09T08:11:20.855Z,10.23
2019-05-09T08:13:51.278Z,9.73
2019-05-09T08:16:21.735Z,6.57
2019-05-09T08:18:52.055Z,7.90
2019-05-09T08:21:22.533Z,10.47
2019-05-09T08:23:52.945Z,3.43
2019-05-09T08:26:23.241Z,6.20
2019-05-09T08:28:53.556Z,2.73
2019-05-09T08:31:23.899Z,5.80
2019-05-09T08:33:54.214Z,2.77
2019-05-09T08:36:24.568Z,2.30
2019-05-09T08:38:54.871Z,1.87
2019-05-09T08:41:25.203Z,2.40
2019-05-09T08:43:57.572Z,2.50
2019-05-09T08:46:28.657Z,1.80
2019-05-09T08:48:59.095Z,1.60
2019-05-09T08:51:36.948Z,2.30
2019-05-09T08:54:03.057Z,3.00
2019-05-09T08:56:33.389Z,2.27
2019-05-09T08:59:03.686Z,2.03
2019-05-09T09:01:50.242Z,4.50
2019-05-09T09:04:08.055Z,3.20
2019-05-09T09:06:38.091Z,4.40
2019-05-09T09:09:08.333Z,13.20
2019-05-09T09:11:38.768Z,15.72
2019-05-09T09:14:09.088Z,19.70
2019-05-09T09:16:41.856Z,12.50
2019-05-09T09:19:11.573Z,18.98
2019-05-09T09:21:42.371Z,4.40
2019-05-09T09:24:12.694Z,2.20
2019-05-09T09:26:42.951Z,2.10
2019-05-09T09:29:13.263Z,2.33
2019-05-09T09:31:43.519Z,2.20
2019-05-09T09:34:13.765Z,3.10
2019-05-09T09:36:44.024Z,6.07
2019-05-09T09:39:14.425Z,6.07
2019-05-09T09:41:44.840Z,5.77
2019-05-09T09:44:17.804Z,1.83
2019-05-09T09:46:47.821Z,2.50
2019-05-09T09:49:18.188Z,1.70
2019-05-09T09:51:48.594Z,2.40
2019-05-09T09:54:18.904Z,3.40
2019-05-09T09:56:53.615Z,5.47
2019-05-09T09:59:28.561Z,3.40
2019-05-09T10:02:03.318Z,3.03
2019-05-09T10:04:33.682Z,4.47
2019-05-09T10:07:04.132Z,6.23
2019-05-09T10:09:34.525Z,5.20
2019-05-09T10:12:05.035Z,3.93
2019-05-09T10:14:39.918Z,2.67
2019-05-09T10:17:11.867Z,2.27
2019-05-09T10:19:43.725Z,2.87
2019-05-09T10:22:24.866Z,2.40
2019-05-09T10:24:53.707Z,8.57
2019-05-09T10:27:24.179Z,5.23
2019-05-09T10:29:54.604Z,8.27
2019-05-09T10:32:25.073Z,14.47
2019-05-09T10:34:57.878Z,24.97
2019-05-09T10:37:27.645Z,11.20
2019-05-09T10:39:58.312Z,7.00
2019-05-09T10:42:48.124Z,6.60
2019-05-09T10:45:39.977Z,7.37
2019-05-09T10:48:08.296Z,3.70
2019-05-09T10:50:44.954Z,2.87
2019-05-09T10:53:10.775Z,4.70
2019-05-09T10:55:41.073Z,3.30
2019-05-09T10:58:11.427Z,6.13
2019-05-09T11:00:41.760Z,6.87
2019-05-09T11:03:12.113Z,10.93
2019-05-09T11:05:42.430Z,9.70
2019-05-09T11:08:12.794Z,8.33
2019-05-09T11:10:43.602Z,8.73
2019-05-09T11:13:14.124Z,6.67
2019-05-09T11:15:44.558Z,6.90
2019-05-09T11:18:15.049Z,13.57
2019-05-09T11:20:45.429Z,9.63
2019-05-09T11:23:15.867Z,10.30
2019-05-09T11:25:47.267Z,10.77
2019-05-09T11:28:17.995Z,11.23
2019-05-09T11:30:48.480Z,8.27
2019-05-09T11:33:18.845Z,6.40
2019-05-09T11:35:49.160Z,9.47
2019-05-09T11:38:32.015Z,8.57
2019-05-09T11:40:51.729Z,9.77
2019-05-09T11:43:22.178Z,9.37
2019-05-09T11:45:52.588Z,9.27
2019-05-09T11:48:22.991Z,8.23
2019-05-09T11:50:53.399Z,7.63
2019-05-09T11:53:23.836Z,5.30
2019-05-09T11:55:54.282Z,4.53
2019-05-09T11:58:24.728Z,10.63
2019-05-09T12:00:55.167Z,13.87
2019-05-09T12:03:25.611Z,5.33
2019-05-09T12:05:58.159Z,4.17
2019-05-09T12:08:27.950Z,4.57
2019-05-09T12:10:58.249Z,4.67
2019-05-09T12:13:28.663Z,4.43
2019-05-09T12:15:58.889Z,4.37
2019-05-09T12:18:29.258Z,4.20
2019-05-09T12:20:59.549Z,5.30
2019-05-09T12:23:29.913Z,4.83
2019-05-09T12:26:00.269Z,4.73
2019-05-09T12:28:30.681Z,4.70
2019-05-09T12:31:00.994Z,4.40
2019-05-09T12:33:33.347Z,5.30
2019-05-09T12:36:03.345Z,3.87
2019-05-09T12:38:33.670Z,4.10
2019-05-09T12:41:04.009Z,3.20
2019-05-09T12:43:34.369Z,3.67
2019-05-09T12:46:04.777Z,3.60
2019-05-09T12:48:35.246Z,3.27
2019-05-09T12:51:08.084Z,3.23
2019-05-09T12:53:39.545Z,5.43
2019-05-09T12:56:09.655Z,4.10
2019-05-09T12:58:40.001Z,3.70
2019-05-09T13:01:10.373Z,3.33
2019-05-09T13:03:40.855Z,4.20
2019-05-09T13:06:11.291Z,4.00
2019-05-09T13:08:41.688Z,3.93
2019-05-09T13:11:12.178Z,3.87
2019-05-09T13:13:42.752Z,3.83
2019-05-09T13:16:17.891Z,4.30
2019-05-09T13:19:05.837Z,4.37
2019-05-09T13:21:38.956Z,5.87
2019-05-09T13:24:08.711Z,6.30
2019-05-09T13:26:39.219Z,6.70
2019-05-09T13:29:09.707Z,6.90
2019-05-09T13:31:40.180Z,9.63
2019-05-09T13:34:11.251Z,11.47
2019-05-09T13:36:41.704Z,12.60
2019-05-09T13:39:12.224Z,11.90
2019-05-09T13:41:42.691Z,27.47
2019-05-09T13:44:14.676Z,35.27
2019-05-09T13:46:45.148Z,17.50
2019-05-09T13:49:16.068Z,15.50
2019-05-09T13:51:57.414Z,16.00
2019-05-09T13:54:20.354Z,18.23
2019-05-09T13:56:57.524Z,20.17
2019-05-09T13:59:22.942Z,22.57
2019-05-09T14:01:53.388Z,24.77
2019-05-09T14:04:23.935Z,30.20
2019-05-09T14:06:54.361Z,37.03
2019-05-09T14:09:24.867Z,38.77
2019-05-09T14:11:58.595Z,40.03
2019-05-09T14:14:28.783Z,45.13
2019-05-09T14:16:59.477Z,44.67
2019-05-09T14:19:40.543Z,47.90
2019-05-09T14:22:02.169Z,49.03
2019-05-09T14:24:32.808Z,48.37
2019-05-09T14:27:03.251Z,44.13
2019-05-09T14:29:33.756Z,40.77
2019-05-09T14:32:05.223Z,37.93
2019-05-09T14:34:38.150Z,26.00
2019-05-09T14:37:09.542Z,21.13
2019-05-09T14:39:54.760Z,20.13
2019-05-09T14:42:12.539Z,13.57
2019-05-09T14:44:43.048Z,6.47
2019-05-09T14:47:13.866Z,5.13
2019-05-09T14:49:44.831Z,5.00
2019-05-09T14:52:15.423Z,4.13
2019-05-09T14:54:48.256Z,3.53
2019-05-09T14:57:18.106Z,2.67
2019-05-09T14:59:48.603Z,3.47
2019-05-09T15:02:19.466Z,2.80
2019-05-09T15:04:50.002Z,2.70
2019-05-09T15:07:20.462Z,2.80
2019-05-09T15:09:50.999Z,3.10
2019-05-09T15:12:21.445Z,2.90
2019-05-09T15:14:52.927Z,2.57
2019-05-09T15:17:23.356Z,2.27
2019-05-09T15:20:00.075Z,2.27
2019-05-09T15:22:28.374Z,2.70
2019-05-09T15:24:59.094Z,3.50
2019-05-09T15:27:29.618Z,3.40
2019-05-09T15:30:00.140Z,2.90
2019-05-09T15:32:30.655Z,3.37
2019-05-09T15:35:01.063Z,3.97
2019-05-09T15:37:31.427Z,4.57
2019-05-09T15:40:01.937Z,3.53
2019-05-09T15:42:32.367Z,3.40
2019-05-09T15:45:02.748Z,3.07
2019-05-09T15:47:34.734Z,3.27
2019-05-09T15:50:19.243Z,2.50
2019-05-09T15:52:40.571Z,2.83
2019-05-09T15:55:11.369Z,3.20
2019-05-09T15:57:41.813Z,2.70
2019-05-09T16:00:14.697Z,2.90
2019-05-09T16:02:48.232Z,2.73
2019-05-09T16:05:18.010Z,2.40
2019-05-09T16:07:48.553Z,2.40
2019-05-09T16:10:19.035Z,2.87
2019-05-09T16:12:49.403Z,2.60
2019-05-09T16:15:20.808Z,2.63
2019-05-09T16:17:51.245Z,2.70
2019-05-09T16:20:36.506Z,3.07
2019-05-09T16:22:57.016Z,3.47
2019-05-09T16:25:28.272Z,3.70
2019-05-09T16:27:58.755Z,3.10
2019-05-09T16:30:29.247Z,3.10
2019-05-09T16:32:59.658Z,3.63
2019-05-09T16:35:30.133Z,3.90
2019-05-09T16:38:06.360Z,3.30
2019-05-09T16:40:32.761Z,4.30
2019-05-09T16:43:03.179Z,3.20
2019-05-09T16:45:33.677Z,3.43
2019-05-09T16:48:04.132Z,5.60
2019-05-09T16:50:34.629Z,3.10
2019-05-09T16:53:05.067Z,3.40
2019-05-09T16:55:38.077Z,3.50
2019-05-09T16:58:08.793Z,4.00
2019-05-09T17:00:42.269Z,3.93
2019-05-09T17:03:12.894Z,4.03
2019-05-09T17:05:43.384Z,4.33
2019-05-09T17:08:13.825Z,3.93
2019-05-09T17:10:44.449Z,3.90
2019-05-09T17:13:14.910Z,3.80
2019-05-09T17:15:48.081Z,4.90
2019-05-09T17:18:19.068Z,3.80
2019-05-09T17:20:54.037Z,4.30
2019-05-09T17:23:29.288Z,4.23
2019-05-09T17:25:58.034Z,4.20
2019-05-09T17:28:28.606Z,4.87
2019-05-09T17:30:59.011Z,5.33
2019-05-09T17:33:29.441Z,6.00
2019-05-09T17:35:59.829Z,6.33
2019-05-09T17:38:30.173Z,6.50
2019-05-09T17:41:00.955Z,6.20
2019-05-09T17:43:31.388Z,6.80
2019-05-09T17:46:01.794Z,7.60
2019-05-09T17:48:32.245Z,7.77
2019-05-09T17:51:02.723Z,8.20
2019-05-09T17:53:34.034Z,8.03
2019-05-09T17:56:04.754Z,8.40
2019-05-09T17:58:35.189Z,8.07
2019-05-09T18:01:07.832Z,8.00
2019-05-09T18:03:38.579Z,8.60
2019-05-09T18:06:09.101Z,10.23
2019-05-09T18:08:39.531Z,9.03
2019-05-09T18:11:12.961Z,8.93
2019-05-09T18:13:42.173Z,8.87
2019-05-09T18:16:13.604Z,7.80
2019-05-09T18:18:44.170Z,7.43
2019-05-09T18:21:14.642Z,7.87
2019-05-09T18:23:45.158Z,6.07
2019-05-09T18:26:15.637Z,6.40
2019-05-09T18:28:47.938Z,5.43
2019-05-09T18:31:18.227Z,4.80
2019-05-09T18:33:50.272Z,4.73
2019-05-09T18:36:20.700Z,4.33
2019-05-09T18:38:51.094Z,4.43
2019-05-09T18:41:21.563Z,3.80
2019-05-09T18:43:51.977Z,4.00
2019-05-09T18:46:22.441Z,3.77
2019-05-09T18:48:52.861Z,4.37
2019-05-09T18:51:23.245Z,4.73
2019-05-09T18:53:53.588Z,4.63
2019-05-09T18:56:24.054Z,4.13
2019-05-09T18:58:54.479Z,4.33
2019-05-09T19:01:24.936Z,4.80
2019-05-09T19:03:55.395Z,4.13
2019-05-09T19:06:25.858Z,4.20
2019-05-09T19:08:56.208Z,4.20
2019-05-09T19:11:26.659Z,4.23
2019-05-09T19:13:58.024Z,3.87
2019-05-09T19:16:33.962Z,3.47
2019-05-09T19:19:09.017Z,3.73
2019-05-09T19:21:44.002Z,3.60
2019-05-09T19:24:14.317Z,4.00
2019-05-09T19:26:44.763Z,3.70
2019-05-09T19:29:15.109Z,4.20
2019-05-09T19:31:45.577Z,4.13
2019-05-09T19:34:15.981Z,3.80
2019-05-09T19:36:46.445Z,4.10
2019-05-09T19:39:16.860Z,4.57
2019-05-09T19:41:47.337Z,4.27
2019-05-09T19:44:17.761Z,4.70
2019-05-09T19:46:48.240Z,4.40
2019-05-09T19:49:18.663Z,4.33
2019-05-09T19:51:49.113Z,4.40
2019-05-09T19:54:19.555Z,4.63
2019-05-09T19:56:50.020Z,5.03
2019-05-09T19:59:20.424Z,4.50
2019-05-09T20:01:50.900Z,4.80
2019-05-09T20:04:21.351Z,5.27
2019-05-09T20:06:51.831Z,4.87
2019-05-09T20:09:23.831Z,5.47
2019-05-09T20:12:04.796Z,5.87
2019-05-09T20:14:36.770Z,6.40
2019-05-09T20:17:07.432Z,5.80
2019-05-09T20:19:37.816Z,5.43
2019-05-09T20:22:08.204Z,6.73
2019-05-09T20:24:38.661Z,8.07
2019-05-09T20:27:09.109Z,8.67
2019-05-09T20:29:39.525Z,9.93
2019-05-09T20:32:10.014Z,9.97
2019-05-09T20:34:40.666Z,9.60
2019-05-09T20:37:11.053Z,8.10
2019-05-09T20:39:41.593Z,8.00
2019-05-09T20:42:12.238Z,7.00
2019-05-09T20:44:42.832Z,5.87
2019-05-09T20:47:13.457Z,7.07
2019-05-09T20:49:44.092Z,6.00
2019-05-09T20:52:14.842Z,6.30
2019-05-09T20:54:45.362Z,6.73
2019-05-09T20:57:15.935Z,5.33
2019-05-09T20:59:46.447Z,6.27
2019-05-09T21:02:17.083Z,5.77
2019-05-09T21:04:47.696Z,5.40
2019-05-09T21:07:18.315Z,5.83
2019-05-09T21:09:48.839Z,5.77
2019-05-09T21:12:19.458Z,5.73
2019-05-09T21:14:50.057Z,6.33
2019-05-09T21:17:22.531Z,6.10
2019-05-09T21:19:53.207Z,6.93
2019-05-09T21:22:23.854Z,7.57
2019-05-09T21:24:54.379Z,8.80
2019-05-09T21:27:25.009Z,11.27
2019-05-09T21:29:55.592Z,13.83
2019-05-09T21:32:26.156Z,18.17
2019-05-09T21:34:56.486Z,19.83
2019-05-09T21:37:26.959Z,19.37
2019-05-09T21:39:57.377Z,21.90
2019-05-09T21:42:27.854Z,22.63
2019-05-09T21:44:58.266Z,25.03
2019-05-09T21:47:28.742Z,30.30
2019-05-09T21:49:59.163Z,30.27
2019-05-09T21:52:29.620Z,28.33
2019-05-09T21:55:00.029Z,27.03
2019-05-09T21:57:30.481Z,23.80
2019-05-09T22:00:00.920Z,20.10
2019-05-09T22:02:31.382Z,19.77
2019-05-09T22:05:01.815Z,21.40
2019-05-09T22:07:32.280Z,20.67
2019-05-09T22:10:02.838Z,20.33
2019-05-09T22:12:33.327Z,21.90
2019-05-09T22:15:04.966Z,19.57
2019-05-09T22:17:40.256Z,21.87
2019-05-09T22:20:12.173Z,20.57
2019-05-09T22:22:42.640Z,19.23
2019-05-09T22:25:13.171Z,18.70
2019-05-09T22:27:43.613Z,18.97
2019-05-09T22:30:15.379Z,18.87
2019-05-09T22:32:45.834Z,17.20
2019-05-09T22:35:16.686Z,15.17
2019-05-09T22:37:47.150Z,14.00
2019-05-09T22:40:17.692Z,12.07
2019-05-09T22:42:48.151Z,11.10
2019-05-09T22:45:19.430Z,9.87
2019-05-09T22:47:49.813Z,10.20
2019-05-09T22:50:20.219Z,9.17
2019-05-09T22:52:50.645Z,8.30
2019-05-09T22:55:21.092Z,7.80
2019-05-09T22:57:51.554Z,7.47
2019-05-09T23:00:21.980Z,7.87
2019-05-09T23:02:52.449Z,7.60
2019-05-09T23:05:22.784Z,7.87
2019-05-09T23:07:53.180Z,7.60
2019-05-09T23:10:23.591Z,7.57
2019-05-09T23:12:54.041Z,7.27
2019-05-09T23:15:24.470Z,7.07
2019-05-09T23:17:55.964Z,8.17
2019-05-09T23:20:42.842Z,8.60
2019-05-09T23:23:23.679Z,8.80
2019-05-09T23:25:54.296Z,8.30
2019-05-09T23:28:25.173Z,8.40
2019-05-09T23:30:57.163Z,8.37
2019-05-09T23:33:29.174Z,8.83
2019-05-09T23:35:59.702Z,11.57
2019-05-09T23:38:30.155Z,12.37
2019-05-09T23:41:00.607Z,13.17
2019-05-09T23:43:31.001Z,13.37
2019-05-09T23:46:01.435Z,15.50
2019-05-09T23:48:31.913Z,15.53
2019-05-09T23:51:02.384Z,14.70
2019-05-09T23:53:38.964Z,12.27
2019-05-09T23:56:26.819Z,11.17
2019-05-09T23:59:14.796Z,10.80
